Aérodrome :
LOGIN :

S'inscrire | Disclaimer

   EN    FR    IT 

 










Légende :    VFR   VFR Marginal   IFR   IFR Intensif   IFR Très Intensif
Visi : 
Plafond : 
>= 8 km
>= 3000ft
5 à 8 km
1000 à 3000 ft
1500m à 5 km
500 à 1000 ft
800 à 1500m
200 à 500 ft
< 800m
< 200 ft
Symboles :   Orages  Brouillard  Fortes neiges  Fortes précipitations  Vent > 20 kt
SIGMETs :   Divers  Orages  Givrage  Turbulence  Onde Orograph.  Cendres Volcan.






- Altitude de l'aérodrome : 3 ft
- Code IATA : DHR


EHKD - Den Helder De Kooy

DERNIER METAR :
  • 271025Z AUTO 09005KT 060V120 9999 BKN046 08/06 Q1020 BLU NOSIG

METARs EXPIRÉS :
  • 270955Z AUTO 09004KT 050V120 8000 BR BKN047 07/06 Q1020 BLU NOSIG
  • 270925Z AUTO 09003KT 9999 BKN046 06/06 Q1020 BLU NOSIG
  • 270920Z AUTO 09003KT 9999 BKN046 06/06 Q1020 BLU NOSIG
  • 270910Z AUTO 11003KT 070V170 9999 OVC045 05/05 Q1020 BLU NOSIG
  • 270857Z AUTO 08003KT 9999 OVC044 03/03 Q1020 BLU NOSIG
  • 270841Z AUTO 06002KT 6000 BR OVC044 03/02 Q1020 WHT NOSIG
  • 270837Z AUTO 07002KT 9000 BR SCT042 OVC047 03/02 Q1020 BLU NOSIG
  • 270827Z AUTO 10001KT 3800 BR FEW041 BKN046 03/02 Q1020 GRN NOSIG
  • 270818Z AUTO VRB02KT 6000 BR BKN045 03/02 Q1020 WHT NOSIG
  • 270812Z AUTO VRB01KT 5000 R21/2300U BR FEW036 BKN042 OVC046 03/02 Q1020 WHT TEMPO 0500 BCFG
  • 270748Z AUTO 00000KT 0600 R21/0700D FG FEW046 01/01 Q1020 RED TEMPO 0500 BCFG

TAF TAF EHKD
Valide du 27 à 10h jusqu'au 27 à 22h UTC


270923Z 2710/2722 09004KT 9999 BKN045
BECMG 2712/2715 SCT008 BKN012
TEMPO 2713/2720 4000 -DZRA SCT006 BKN008
PROB40
TEMPO 2715/2718 2000 DZRA BR SCT002 BKN004
BECMG 2718/2721 FEW008 SCT020
PROB40 2720/2722 4000 BR MIFG



MET'MAP, la Météo Aéronautique d'un coup d'oeil ! - Copyright ORBIFLY Décembre 2007 - Disclaimer

ORBIFLY MET'MAP TEAM :

Programmation & Développement : Alexandra Zaïnal
Sur une idée originale de : Baudouin d'Aumeries
Assistance à la programmation : Marc-Olivier Méhu
Soutien technique & logistique : Manuel Goepfert

Contact : metmap@orbifly.com




SOURCES & CREDITS :

   NOAA